createdAt,value
2022-09-05T00:00:41.190Z,2.00
2022-09-05T00:01:41.184Z,1.70
2022-09-05T00:02:48.665Z,1.80
2022-09-05T00:03:42.347Z,2.20
2022-09-05T00:04:41.164Z,1.90
2022-09-05T00:06:00.171Z,2.20
2022-09-05T00:06:42.120Z,2.00
2022-09-05T00:07:59.252Z,2.00
2022-09-05T00:08:42.106Z,2.00
2022-09-05T00:09:41.088Z,1.70
2022-09-05T00:11:39.280Z,1.80
2022-09-05T00:11:44.169Z,1.90
2022-09-05T00:12:41.060Z,2.10
2022-09-05T00:13:41.062Z,2.10
2022-09-05T00:15:14.561Z,2.10
2022-09-05T00:15:42.070Z,1.90
2022-09-05T00:16:41.030Z,1.90
2022-09-05T00:19:19.145Z,1.90
2022-09-05T00:24:18.925Z,1.90
2022-09-05T00:24:20.512Z,1.80
2022-09-05T00:24:26.945Z,1.80
2022-09-05T00:24:27.973Z,1.80
2022-09-05T00:24:36.584Z,1.50
2022-09-05T00:24:36.741Z,1.70
2022-09-05T00:25:06.806Z,1.80
2022-09-05T00:25:41.917Z,2.00
2022-09-05T00:26:48.600Z,2.00
2022-09-05T00:27:41.891Z,1.70
2022-09-05T00:28:40.891Z,1.90
2022-09-05T00:31:04.001Z,1.70
2022-09-05T00:31:06.871Z,1.90
2022-09-05T00:31:54.005Z,2.00
2022-09-05T00:32:41.962Z,1.90
2022-09-05T00:33:40.830Z,2.00
2022-09-05T00:34:48.082Z,1.80
2022-09-05T00:35:41.820Z,1.90
2022-09-05T00:36:40.815Z,1.80
2022-09-05T00:37:40.790Z,1.80
2022-09-05T00:38:40.780Z,2.00
2022-09-05T00:39:40.840Z,2.20
2022-09-05T00:40:41.755Z,2.20
2022-09-05T00:41:40.742Z,1.60
2022-09-05T00:42:40.734Z,1.60
2022-09-05T00:43:40.717Z,2.30
2022-09-05T00:44:40.702Z,2.10
2022-09-05T00:45:40.713Z,1.70
2022-09-05T00:46:40.775Z,1.70
2022-09-05T00:47:40.682Z,1.60
2022-09-05T00:48:41.672Z,1.80
2022-09-05T00:49:40.676Z,1.60
2022-09-05T00:50:40.644Z,1.90
2022-09-05T00:51:40.648Z,1.80
2022-09-05T00:52:40.627Z,1.80
2022-09-05T00:53:40.623Z,1.80
2022-09-05T00:54:41.744Z,1.80
2022-09-05T00:55:40.606Z,1.90
2022-09-05T00:56:40.581Z,2.00
2022-09-05T00:57:40.587Z,1.90
2022-09-05T00:58:40.556Z,1.80
2022-09-05T00:59:40.544Z,1.90
2022-09-05T01:00:40.545Z,2.00
2022-09-05T01:01:40.666Z,1.90
2022-09-05T01:02:52.011Z,2.00
2022-09-05T01:03:41.511Z,2.30
2022-09-05T01:04:40.494Z,2.10
2022-09-05T01:05:40.532Z,2.30
2022-09-05T01:06:40.476Z,1.90
2022-09-05T01:07:46.603Z,2.20
2022-09-05T01:08:41.438Z,2.10
2022-09-05T01:09:40.451Z,1.80
2022-09-05T01:10:40.423Z,2.10
2022-09-05T01:11:40.414Z,1.70
2022-09-05T01:12:40.425Z,2.00
2022-09-05T01:13:40.393Z,2.20
2022-09-05T01:14:40.374Z,1.80
2022-09-05T01:15:40.403Z,2.10
2022-09-05T01:16:40.358Z,2.20
2022-09-05T01:17:40.339Z,2.00
2022-09-05T01:18:40.370Z,2.10
2022-09-05T01:19:40.354Z,2.20
2022-09-05T01:20:40.310Z,2.10
2022-09-05T01:21:40.307Z,2.40
2022-09-05T01:22:41.285Z,2.00
2022-09-05T01:23:40.284Z,2.10
2022-09-05T01:24:40.290Z,1.90
2022-09-05T01:25:40.413Z,2.30
2022-09-05T01:26:41.244Z,2.10
2022-09-05T01:29:01.274Z,2.00
2022-09-05T01:29:17.987Z,2.30
2022-09-05T01:29:41.213Z,2.20
2022-09-05T01:30:40.213Z,2.10
2022-09-05T01:31:40.208Z,1.90
2022-09-05T01:32:40.181Z,2.30
2022-09-05T01:33:40.170Z,2.00
2022-09-05T01:34:40.150Z,2.20
2022-09-05T01:35:40.150Z,2.60
2022-09-05T01:36:41.142Z,2.10
2022-09-05T01:37:40.124Z,2.10
2022-09-05T01:38:40.108Z,2.70
2022-09-05T01:40:11.950Z,2.30
2022-09-05T01:40:41.167Z,2.30
2022-09-05T01:41:40.080Z,2.40
2022-09-05T01:42:40.068Z,2.50
2022-09-05T01:43:40.071Z,2.30
2022-09-05T01:44:40.041Z,2.30
2022-09-05T01:45:40.158Z,2.00
2022-09-05T01:46:40.060Z,2.30
2022-09-05T01:47:40.223Z,2.30
2022-09-05T01:48:40.001Z,2.60
2022-09-05T01:49:40.997Z,2.40
2022-09-05T01:50:39.979Z,2.30
2022-09-05T01:51:39.972Z,2.90
2022-09-05T01:52:45.048Z,2.20
2022-09-05T01:53:40.944Z,2.70
2022-09-05T01:54:39.945Z,2.30
2022-09-05T01:56:04.254Z,2.10
2022-09-05T01:56:40.927Z,2.60
2022-09-05T01:57:39.931Z,2.30
2022-09-05T01:58:39.894Z,2.20
2022-09-05T01:59:39.883Z,2.10
2022-09-05T02:00:40.877Z,2.30
2022-09-05T02:01:39.924Z,2.00
2022-09-05T02:02:40.028Z,2.30
2022-09-05T02:03:39.853Z,2.20
2022-09-05T02:04:39.820Z,2.60
2022-09-05T02:05:49.133Z,2.20
2022-09-05T02:06:43.207Z,2.20
2022-09-05T02:07:39.802Z,2.10
2022-09-05T02:08:41.745Z,2.10
2022-09-05T02:09:39.782Z,2.10
2022-09-05T02:10:39.757Z,2.30
2022-09-05T02:11:39.748Z,2.30
2022-09-05T02:12:39.737Z,2.60
2022-09-05T02:13:39.728Z,2.00
2022-09-05T02:14:39.714Z,2.40
2022-09-05T02:15:39.732Z,2.60
2022-09-05T02:16:39.690Z,1.80
2022-09-05T02:17:50.034Z,2.00
2022-09-05T02:18:40.681Z,2.50
2022-09-05T02:19:39.669Z,2.10
2022-09-05T02:20:39.658Z,2.00
2022-09-05T02:21:55.616Z,2.00
2022-09-05T02:22:40.616Z,2.80
2022-09-05T02:23:41.821Z,2.60
2022-09-05T02:24:39.619Z,2.20
2022-09-05T02:26:01.304Z,2.50
2022-09-05T02:26:40.601Z,2.30
2022-09-05T02:28:03.414Z,2.50
2022-09-05T02:28:40.556Z,2.60
2022-09-05T02:29:39.556Z,2.10
2022-09-05T02:30:48.549Z,2.40
2022-09-05T02:31:40.589Z,2.40
2022-09-05T02:32:40.635Z,2.20
2022-09-05T02:33:39.517Z,2.00
2022-09-05T02:34:39.483Z,2.10
2022-09-05T02:35:39.486Z,2.30
2022-09-05T02:36:39.472Z,2.30
2022-09-05T02:38:38.013Z,2.80
2022-09-05T02:42:19.559Z,2.20
2022-09-05T02:45:04.365Z,2.40
2022-09-05T02:45:12.505Z,2.00
2022-09-05T02:45:14.818Z,2.30
2022-09-05T02:45:16.330Z,2.30
2022-09-05T02:45:16.999Z,2.10
2022-09-05T02:45:18.443Z,2.00
2022-09-05T02:45:40.497Z,2.50
2022-09-05T02:46:39.531Z,2.20
2022-09-05T02:47:39.347Z,2.30
2022-09-05T02:48:39.344Z,2.20
2022-09-05T02:52:14.271Z,2.20
2022-09-05T02:53:41.265Z,2.20
2022-09-05T02:57:25.163Z,2.20
2022-09-05T02:57:27.015Z,2.40
2022-09-05T02:57:35.414Z,2.70
2022-09-05T02:57:40.446Z,2.40
2022-09-05T02:57:43.272Z,2.20
2022-09-05T02:58:04.359Z,2.40
2022-09-05T02:58:07.888Z,2.30
2022-09-05T02:59:08.017Z,3.00
2022-09-05T02:59:40.250Z,2.70
2022-09-05T03:00:39.205Z,2.20
2022-09-05T03:01:39.260Z,2.50
2022-09-05T03:02:39.212Z,2.50
2022-09-05T03:03:39.417Z,2.40
2022-09-05T03:04:39.159Z,2.50
2022-09-05T03:05:39.158Z,2.80
2022-09-05T03:06:39.144Z,2.50
2022-09-05T03:07:39.131Z,2.80
2022-09-05T03:08:39.111Z,2.30
2022-09-05T03:09:39.105Z,2.60
2022-09-05T03:10:54.690Z,2.20
2022-09-05T03:11:40.081Z,2.40
2022-09-05T03:12:39.084Z,2.50
2022-09-05T03:13:39.057Z,2.60
2022-09-05T03:14:40.042Z,2.70
2022-09-05T03:15:39.053Z,2.40
2022-09-05T03:16:44.957Z,2.60
2022-09-05T03:17:40.013Z,2.80
2022-09-05T03:18:39.029Z,2.40
2022-09-05T03:19:46.633Z,2.70
2022-09-05T03:20:39.987Z,2.40
2022-09-05T03:21:38.975Z,2.30
2022-09-05T03:22:38.954Z,2.40
2022-09-05T03:23:38.954Z,2.90
2022-09-05T03:24:38.941Z,2.50
2022-09-05T03:25:38.932Z,2.10
2022-09-05T03:26:38.910Z,2.20
2022-09-05T03:27:38.914Z,2.40
2022-09-05T03:28:38.899Z,2.20
2022-09-05T03:29:38.911Z,2.70
2022-09-05T03:30:38.932Z,2.60
2022-09-05T03:31:38.865Z,2.70
2022-09-05T03:32:42.105Z,2.00
2022-09-05T03:33:38.841Z,2.30
2022-09-05T03:34:38.833Z,2.30
2022-09-05T03:35:38.820Z,2.50
2022-09-05T03:36:38.800Z,2.70
2022-09-05T03:37:38.799Z,2.40
2022-09-05T03:38:38.802Z,2.40
2022-09-05T03:39:38.826Z,2.40
2022-09-05T03:40:38.759Z,2.40
2022-09-05T03:41:40.622Z,2.80
2022-09-05T03:42:38.746Z,2.40
2022-09-05T03:43:38.722Z,2.50
2022-09-05T03:44:38.721Z,2.70
2022-09-05T03:45:38.729Z,2.50
2022-09-05T03:46:38.692Z,2.50
2022-09-05T03:47:38.682Z,2.50
2022-09-05T03:48:38.846Z,2.40
2022-09-05T03:54:19.123Z,2.50
2022-09-05T03:57:04.264Z,2.30
2022-09-05T03:57:07.761Z,2.80
2022-09-05T03:57:14.073Z,2.80
2022-09-05T03:57:17.336Z,2.80
2022-09-05T03:57:23.498Z,2.90
2022-09-05T03:57:23.791Z,2.60
2022-09-05T03:57:27.283Z,2.60
2022-09-05T03:57:42.610Z,2.60
2022-09-05T03:59:39.557Z,2.60
2022-09-05T04:00:38.547Z,3.00
2022-09-05T04:02:40.339Z,2.50
2022-09-05T04:05:48.299Z,2.50
2022-09-05T04:08:11.159Z,2.40
2022-09-05T04:08:15.460Z,2.90
2022-09-05T04:08:16.719Z,2.30
2022-09-05T04:08:18.067Z,2.50
2022-09-05T04:08:24.858Z,2.00
2022-09-05T04:08:43.085Z,2.80
2022-09-05T04:09:50.529Z,2.50
2022-09-05T04:10:39.545Z,2.90
2022-09-05T04:11:38.433Z,2.20
2022-09-05T04:12:38.426Z,2.60
2022-09-05T04:13:38.399Z,2.80
2022-09-05T04:14:38.659Z,2.70
2022-09-05T04:15:38.370Z,2.40
2022-09-05T04:16:38.441Z,2.50
2022-09-05T04:17:38.356Z,2.40
2022-09-05T04:18:38.415Z,2.80
2022-09-05T04:19:38.343Z,2.70
2022-09-05T04:20:40.485Z,3.00
2022-09-05T04:21:38.313Z,2.80
2022-09-05T04:22:38.333Z,2.50
2022-09-05T04:23:38.281Z,2.50
2022-09-05T04:24:39.574Z,2.60
2022-09-05T04:25:38.266Z,2.80
2022-09-05T04:26:38.249Z,2.80
2022-09-05T04:27:38.242Z,2.60
2022-09-05T04:28:38.231Z,2.90
2022-09-05T04:29:38.229Z,3.00
2022-09-05T04:30:40.475Z,2.80
2022-09-05T04:31:38.296Z,2.40
2022-09-05T04:32:38.181Z,2.80
2022-09-05T04:33:38.178Z,2.60
2022-09-05T04:34:38.166Z,2.90
2022-09-05T04:35:38.151Z,2.50
2022-09-05T04:36:38.158Z,2.60
2022-09-05T04:37:48.694Z,2.70
2022-09-05T04:38:39.119Z,2.60
2022-09-05T04:39:38.188Z,2.50
2022-09-05T04:40:38.117Z,2.80
2022-09-05T04:41:39.865Z,3.00
2022-09-05T04:42:38.083Z,2.90
2022-09-05T04:43:38.063Z,2.80
2022-09-05T04:44:38.069Z,3.00
2022-09-05T04:45:38.082Z,2.70
2022-09-05T04:46:48.879Z,2.80
2022-09-05T04:47:39.015Z,3.10
2022-09-05T04:48:38.050Z,2.90
2022-09-05T04:49:38.001Z,2.90
2022-09-05T04:50:38.242Z,2.90
2022-09-05T04:51:37.992Z,3.00
2022-09-05T04:52:37.969Z,2.50
2022-09-05T04:53:37.974Z,3.20
2022-09-05T04:54:37.955Z,3.00
2022-09-05T04:55:37.990Z,2.70
2022-09-05T04:56:37.922Z,3.10
2022-09-05T04:57:37.920Z,2.80
2022-09-05T04:59:34.297Z,3.20
2022-09-05T05:04:53.515Z,3.40
2022-09-05T05:06:00.291Z,3.00
2022-09-05T05:06:00.469Z,3.00
2022-09-05T05:06:03.450Z,3.30
2022-09-05T05:06:08.545Z,3.00
2022-09-05T05:06:19.100Z,2.90
2022-09-05T05:06:19.103Z,3.20
2022-09-05T05:06:45.962Z,2.50
2022-09-05T05:07:38.988Z,2.70
2022-09-05T05:08:39.123Z,3.10
2022-09-05T05:09:37.785Z,3.20
2022-09-05T05:11:34.892Z,2.90
2022-09-05T05:17:56.642Z,2.80
2022-09-05T05:17:58.942Z,2.80
2022-09-05T05:18:07.943Z,2.90
2022-09-05T05:18:08.468Z,3.10
2022-09-05T05:18:12.957Z,3.20
2022-09-05T05:18:15.638Z,3.00
2022-09-05T05:18:37.705Z,2.80
2022-09-05T05:18:53.277Z,3.20
2022-09-05T05:19:38.752Z,2.90
2022-09-05T05:20:41.829Z,2.70
2022-09-05T05:21:38.643Z,3.50
2022-09-05T05:22:37.649Z,3.00
2022-09-05T05:23:37.636Z,2.60
2022-09-05T05:24:37.617Z,3.10
2022-09-05T05:25:37.609Z,2.80
2022-09-05T05:26:37.604Z,3.10
2022-09-05T05:27:37.586Z,3.00
2022-09-05T05:28:37.564Z,2.80
2022-09-05T05:29:37.564Z,3.00
2022-09-05T05:30:37.606Z,2.90
2022-09-05T05:31:37.660Z,2.80
2022-09-05T05:32:45.490Z,2.90
2022-09-05T05:33:38.533Z,3.00
2022-09-05T05:34:37.549Z,2.60
2022-09-05T05:35:44.582Z,3.10
2022-09-05T05:36:38.480Z,3.00
2022-09-05T05:37:37.486Z,2.70
2022-09-05T05:38:37.465Z,2.80
2022-09-05T05:39:37.564Z,3.10
2022-09-05T05:40:41.263Z,2.90
2022-09-05T05:41:38.454Z,3.00
2022-09-05T05:42:37.418Z,2.80
2022-09-05T05:43:37.404Z,2.80
2022-09-05T05:44:37.401Z,3.20
2022-09-05T05:45:37.471Z,3.10
2022-09-05T05:46:37.399Z,3.30
2022-09-05T05:47:37.537Z,3.30
2022-09-05T05:48:37.351Z,2.60
2022-09-05T05:49:37.328Z,3.10
2022-09-05T05:50:37.720Z,3.00
2022-09-05T05:52:02.667Z,3.00
2022-09-05T05:52:38.307Z,2.80
2022-09-05T05:53:43.746Z,3.10
2022-09-05T05:54:38.288Z,2.70
2022-09-05T05:55:53.128Z,2.90
2022-09-05T05:56:38.287Z,3.10
2022-09-05T05:57:37.248Z,2.60
2022-09-05T05:58:37.230Z,3.30
2022-09-05T05:59:37.249Z,3.10
2022-09-05T06:00:37.768Z,3.00
2022-09-05T06:01:38.760Z,3.10
2022-09-05T06:02:37.313Z,3.00
2022-09-05T06:03:37.323Z,3.00
2022-09-05T06:04:44.815Z,2.90
2022-09-05T06:05:38.724Z,2.80
2022-09-05T06:06:37.148Z,3.20
2022-09-05T06:07:48.269Z,3.20
2022-09-05T06:11:58.419Z,2.60
2022-09-05T06:14:51.622Z,3.40
2022-09-05T06:14:57.014Z,3.40
2022-09-05T06:15:01.051Z,3.20
2022-09-05T06:15:01.624Z,3.10
2022-09-05T06:15:02.500Z,3.10
2022-09-05T06:15:06.531Z,2.70
2022-09-05T06:15:38.058Z,3.10
2022-09-05T06:16:37.126Z,3.50
2022-09-05T06:17:37.064Z,2.80
2022-09-05T06:18:37.075Z,3.30
2022-09-05T06:20:28.764Z,3.20
2022-09-05T06:22:06.099Z,3.30
2022-09-05T06:22:07.009Z,3.20
2022-09-05T06:22:37.972Z,2.90
2022-09-05T06:23:39.334Z,2.90
2022-09-05T06:24:36.969Z,3.00
2022-09-05T06:25:36.936Z,2.80
2022-09-05T06:26:36.944Z,2.60
2022-09-05T06:27:36.954Z,2.80
2022-09-05T06:28:38.007Z,2.70
2022-09-05T06:29:38.623Z,2.80
2022-09-05T06:30:36.969Z,2.90
2022-09-05T06:31:36.951Z,2.90
2022-09-05T06:32:36.875Z,2.80
2022-09-05T06:33:36.875Z,2.70
2022-09-05T06:34:36.838Z,2.90
2022-09-05T06:35:36.885Z,2.50
2022-09-05T06:36:36.854Z,3.20
2022-09-05T06:37:37.020Z,2.70
2022-09-05T06:38:36.818Z,3.30
2022-09-05T06:39:36.809Z,2.50
2022-09-05T06:40:36.764Z,2.60
2022-09-05T06:41:36.790Z,2.90
2022-09-05T06:42:43.494Z,3.00
2022-09-05T06:43:37.757Z,2.50
2022-09-05T06:44:36.752Z,2.90
2022-09-05T06:45:36.719Z,2.90
2022-09-05T06:46:54.994Z,3.00
2022-09-05T06:47:37.830Z,2.80
2022-09-05T06:48:46.007Z,2.70
2022-09-05T06:49:40.070Z,3.00
2022-09-05T06:51:07.064Z,2.80
2022-09-05T06:51:37.738Z,2.50
2022-09-05T06:52:37.661Z,2.90
2022-09-05T06:53:36.725Z,2.60
2022-09-05T06:54:36.617Z,2.80
2022-09-05T06:55:36.681Z,2.50
2022-09-05T06:56:36.629Z,2.70
2022-09-05T06:57:44.065Z,2.80
2022-09-05T06:58:37.598Z,2.50
2022-09-05T06:59:36.584Z,2.70
2022-09-05T07:00:36.660Z,2.80
2022-09-05T07:01:59.937Z,2.50
2022-09-05T07:02:59.937Z,2.40
2022-09-05T07:03:37.528Z,2.60
2022-09-05T07:05:24.019Z,2.40
2022-09-05T07:05:42.719Z,2.50
2022-09-05T07:06:46.655Z,2.40
2022-09-05T07:07:38.219Z,2.60
2022-09-05T07:08:37.517Z,2.40
2022-09-05T07:09:36.452Z,2.40
2022-09-05T07:10:39.068Z,2.40
2022-09-05T07:11:36.455Z,2.60
2022-09-05T07:12:36.438Z,2.50
2022-09-05T07:13:38.859Z,2.30
2022-09-05T07:14:37.386Z,2.30
2022-09-05T07:15:36.402Z,2.70
2022-09-05T07:16:38.128Z,2.40
2022-09-05T07:17:48.501Z,2.30
2022-09-05T07:18:37.345Z,2.40
2022-09-05T07:19:36.342Z,2.00
2022-09-05T07:21:17.215Z,2.30
2022-09-05T07:21:37.383Z,2.30
2022-09-05T07:22:48.659Z,2.30
2022-09-05T07:23:56.509Z,2.50
2022-09-05T07:24:55.220Z,1.80
2022-09-05T07:25:37.684Z,2.80
2022-09-05T07:26:52.169Z,2.30
2022-09-05T07:28:00.140Z,2.30
2022-09-05T07:28:37.234Z,2.20
2022-09-05T07:29:36.258Z,2.10
2022-09-05T07:30:36.237Z,2.30
2022-09-05T07:31:38.075Z,2.10
2022-09-05T07:32:36.195Z,2.20
2022-09-05T07:33:36.220Z,2.30
2022-09-05T07:34:36.264Z,2.20
2022-09-05T07:35:42.463Z,2.20
2022-09-05T07:36:37.175Z,2.10
2022-09-05T07:37:36.150Z,2.60
2022-09-05T07:38:52.458Z,2.10
2022-09-05T07:39:37.227Z,2.10
2022-09-05T07:40:36.217Z,2.40
2022-09-05T07:41:36.095Z,2.30
2022-09-05T07:42:36.095Z,2.40
2022-09-05T07:43:36.124Z,2.20
2022-09-05T07:44:36.706Z,2.40
2022-09-05T07:45:36.210Z,2.40
2022-09-05T07:46:36.055Z,1.80
2022-09-05T07:47:36.045Z,2.30
2022-09-05T07:48:36.044Z,2.10
2022-09-05T07:49:36.047Z,1.80
2022-09-05T07:55:20.406Z,2.30
2022-09-05T07:56:49.543Z,1.80
2022-09-05T07:56:55.147Z,2.10
2022-09-05T07:56:55.403Z,2.00
2022-09-05T07:56:59.941Z,1.70
2022-09-05T07:57:06.016Z,1.80
2022-09-05T07:57:06.274Z,1.80
2022-09-05T07:57:51.173Z,1.90
2022-09-05T07:58:36.917Z,2.00
2022-09-05T07:59:35.910Z,2.10
2022-09-05T08:00:35.969Z,2.00
2022-09-05T08:01:36.883Z,2.10
2022-09-05T08:02:35.895Z,2.00
2022-09-05T08:03:35.881Z,2.00
2022-09-05T08:04:35.941Z,1.90
2022-09-05T08:05:36.105Z,1.70
2022-09-05T08:07:25.719Z,1.60
2022-09-05T08:07:49.191Z,1.90
2022-09-05T08:08:36.839Z,1.80
2022-09-05T08:10:06.619Z,1.80
2022-09-05T08:11:10.099Z,2.10
2022-09-05T08:11:36.866Z,1.50
2022-09-05T08:13:22.838Z,2.00
2022-09-05T08:13:37.005Z,2.10
2022-09-05T08:14:43.753Z,1.80
2022-09-05T08:16:10.354Z,1.90
2022-09-05T08:16:36.737Z,1.70
2022-09-05T08:17:35.732Z,1.60
2022-09-05T08:18:35.709Z,1.80
2022-09-05T08:19:35.700Z,1.50
2022-09-05T08:20:35.675Z,1.90
2022-09-05T08:21:39.851Z,1.90
2022-09-05T08:22:35.686Z,1.50
2022-09-05T08:23:35.667Z,1.80
2022-09-05T08:24:35.735Z,1.80
2022-09-05T08:25:37.601Z,1.30
2022-09-05T08:26:36.645Z,1.70
2022-09-05T08:27:35.617Z,1.50
2022-09-05T08:28:39.085Z,1.60
2022-09-05T08:29:35.638Z,1.50
2022-09-05T08:30:36.229Z,1.70
2022-09-05T08:31:35.673Z,1.90
2022-09-05T08:32:36.568Z,1.70
2022-09-05T08:33:36.217Z,1.60
2022-09-05T08:34:44.264Z,1.60
2022-09-05T08:35:36.507Z,1.40
2022-09-05T08:36:35.512Z,2.10
2022-09-05T08:37:35.495Z,1.70
2022-09-05T08:38:40.269Z,1.60
2022-09-05T08:39:36.545Z,1.50
2022-09-05T08:40:35.480Z,1.70
2022-09-05T08:41:49.238Z,1.50
2022-09-05T08:42:37.612Z,1.50
2022-09-05T08:46:36.320Z,1.70
2022-09-05T08:46:39.914Z,1.80
2022-09-05T08:46:41.285Z,1.90
2022-09-05T08:46:49.410Z,1.60
2022-09-05T08:47:43.344Z,1.60
2022-09-05T08:48:37.193Z,1.60
2022-09-05T08:50:08.104Z,1.40
2022-09-05T08:50:36.384Z,1.40
2022-09-05T08:51:35.353Z,1.60
2022-09-05T08:52:36.329Z,1.50
2022-09-05T08:53:46.299Z,1.30
2022-09-05T08:54:36.718Z,1.50
2022-09-05T08:55:35.302Z,1.60
2022-09-05T08:56:35.293Z,1.40
2022-09-05T08:57:35.281Z,1.40
2022-09-05T08:58:35.301Z,1.50
2022-09-05T08:59:35.258Z,1.50
2022-09-05T09:00:35.315Z,1.60
2022-09-05T09:01:39.547Z,1.40
2022-09-05T09:02:48.054Z,1.40
2022-09-05T09:03:36.237Z,1.30
2022-09-05T09:05:01.171Z,1.40
2022-09-05T09:05:49.872Z,1.60
2022-09-05T09:06:36.176Z,1.30
2022-09-05T09:07:51.478Z,1.30
2022-09-05T09:08:36.186Z,1.30
2022-09-05T09:09:35.156Z,1.30
2022-09-05T09:10:35.320Z,1.40
2022-09-05T09:11:36.925Z,1.20
2022-09-05T09:12:35.133Z,1.40
2022-09-05T09:13:35.716Z,1.40
2022-09-05T09:14:35.116Z,1.10
2022-09-05T09:15:35.077Z,1.20
2022-09-05T09:16:35.088Z,1.30
2022-09-05T09:17:35.069Z,1.30
2022-09-05T09:18:36.102Z,1.30
2022-09-05T09:19:35.033Z,1.00
2022-09-05T09:20:35.026Z,1.60
2022-09-05T09:21:35.056Z,1.20
2022-09-05T09:22:35.727Z,1.20
2022-09-05T09:23:35.003Z,1.30
2022-09-05T09:24:34.980Z,1.20
2022-09-05T09:25:35.034Z,1.30
2022-09-05T09:26:34.955Z,1.20
2022-09-05T09:28:13.625Z,1.40
2022-09-05T09:28:48.916Z,1.20
2022-09-05T09:29:35.932Z,1.10
2022-09-05T09:30:34.930Z,1.00
2022-09-05T09:31:34.939Z,1.20
2022-09-05T09:32:34.899Z,1.30
2022-09-05T09:33:34.896Z,1.20
2022-09-05T09:34:36.887Z,1.20
2022-09-05T09:35:34.869Z,1.10
2022-09-05T09:36:34.835Z,1.20
2022-09-05T09:37:50.546Z,1.10
2022-09-05T09:38:35.829Z,1.60
2022-09-05T09:39:38.574Z,1.20
2022-09-05T09:40:34.806Z,1.40
2022-09-05T09:41:34.806Z,1.10
2022-09-05T09:42:34.818Z,1.10
2022-09-05T09:43:34.770Z,1.50
2022-09-05T09:44:34.818Z,1.00
2022-09-05T09:45:34.748Z,1.10
2022-09-05T09:46:39.389Z,1.30
2022-09-05T09:47:35.742Z,1.10
2022-09-05T09:48:34.716Z,1.20
2022-09-05T09:49:34.698Z,1.10
2022-09-05T09:50:34.715Z,1.10
2022-09-05T09:51:34.680Z,1.10
2022-09-05T09:52:34.687Z,1.30
2022-09-05T09:53:37.142Z,1.20
2022-09-05T09:54:34.657Z,1.60
2022-09-05T09:55:34.693Z,1.10
2022-09-05T09:56:34.639Z,1.10
2022-09-05T09:57:35.242Z,1.00
2022-09-05T09:58:34.602Z,1.20
2022-09-05T09:59:34.592Z,1.00
2022-09-05T10:00:34.598Z,1.30
2022-09-05T10:01:37.353Z,1.10
2022-09-05T10:03:40.955Z,1.40
2022-09-05T10:08:52.463Z,1.00
2022-09-05T10:10:33.077Z,1.10
2022-09-05T10:10:33.789Z,1.20
2022-09-05T10:10:45.727Z,1.00
2022-09-05T10:10:45.889Z,1.10
2022-09-05T10:10:51.336Z,1.10
2022-09-05T10:10:55.123Z,1.20
2022-09-05T10:11:18.795Z,1.30
2022-09-05T10:12:35.474Z,1.30
2022-09-05T10:13:34.440Z,1.00
2022-09-05T10:14:49.005Z,1.10
2022-09-05T10:15:35.424Z,1.00
2022-09-05T10:16:35.210Z,1.20
2022-09-05T10:17:35.234Z,0.90
2022-09-05T10:18:34.383Z,1.30
2022-09-05T10:20:35.375Z,1.20
2022-09-05T10:21:34.380Z,1.20
2022-09-05T10:22:36.552Z,1.20
2022-09-05T10:23:34.357Z,1.30
2022-09-05T10:24:34.323Z,1.10
2022-09-05T10:25:34.314Z,1.20
2022-09-05T10:26:35.182Z,1.00
2022-09-05T10:27:34.292Z,1.40
2022-09-05T10:28:34.289Z,1.20
2022-09-05T10:29:36.458Z,1.20
2022-09-05T10:32:12.128Z,1.20
2022-09-05T10:34:49.094Z,1.10
2022-09-05T10:35:09.524Z,1.00
2022-09-05T10:35:11.148Z,1.10
2022-09-05T10:35:22.835Z,1.10
2022-09-05T10:35:37.258Z,1.20
2022-09-05T10:36:34.285Z,1.10
2022-09-05T10:37:34.203Z,1.20
2022-09-05T10:38:34.437Z,1.20
2022-09-05T10:39:34.219Z,1.10
2022-09-05T10:40:45.383Z,1.40
2022-09-05T10:41:35.202Z,1.10
2022-09-05T10:42:34.175Z,1.00
2022-09-05T10:43:35.124Z,0.90
2022-09-05T10:44:34.140Z,1.40
2022-09-05T10:45:38.581Z,0.90
2022-09-05T10:46:50.221Z,0.90
2022-09-05T10:47:35.094Z,1.10
2022-09-05T10:48:34.105Z,1.20
2022-09-05T10:49:34.111Z,1.00
2022-09-05T10:50:34.142Z,1.10
2022-09-05T10:51:37.770Z,1.00
2022-09-05T10:52:34.022Z,1.00
2022-09-05T10:53:39.189Z,1.10
2022-09-05T10:54:35.033Z,0.90
2022-09-05T10:55:34.016Z,0.90
2022-09-05T10:56:33.987Z,0.90
2022-09-05T10:57:33.974Z,0.90
2022-09-05T10:59:38.729Z,1.00
2022-09-05T11:02:04.691Z,1.10
2022-09-05T11:02:24.157Z,1.00
2022-09-05T11:02:29.184Z,0.70
2022-09-05T11:02:39.679Z,1.40
2022-09-05T11:03:34.052Z,1.10
2022-09-05T11:04:37.188Z,0.90
2022-09-05T11:05:35.005Z,1.10
2022-09-05T11:06:33.901Z,1.20
2022-09-05T11:07:33.859Z,0.90
2022-09-05T11:08:33.867Z,0.80
2022-09-05T11:09:33.832Z,0.70
2022-09-05T11:10:33.859Z,0.90
2022-09-05T11:11:35.247Z,0.70
2022-09-05T11:12:33.838Z,0.90
2022-09-05T11:13:36.256Z,0.80
2022-09-05T11:14:33.807Z,0.90
2022-09-05T11:15:33.816Z,0.90
2022-09-05T11:16:33.840Z,0.70
2022-09-05T11:17:33.778Z,0.80
2022-09-05T11:18:33.801Z,0.60
2022-09-05T11:19:34.791Z,1.00
2022-09-05T11:20:35.563Z,0.70
2022-09-05T11:21:33.757Z,0.70
2022-09-05T11:22:33.747Z,0.70
2022-09-05T11:23:33.715Z,0.80
2022-09-05T11:24:33.684Z,0.90
2022-09-05T11:25:40.377Z,1.10
2022-09-05T11:26:34.660Z,1.00
2022-09-05T11:27:33.654Z,0.60
2022-09-05T11:28:33.658Z,0.80
2022-09-05T11:29:33.650Z,1.00
2022-09-05T11:30:38.076Z,0.70
2022-09-05T11:32:00.533Z,0.80
2022-09-05T11:34:24.700Z,0.90
2022-09-05T11:39:17.232Z,0.90
2022-09-05T11:39:38.094Z,1.00
2022-09-05T11:39:52.235Z,0.80
2022-09-05T11:39:57.507Z,0.80
2022-09-05T11:40:04.815Z,0.90
2022-09-05T11:40:06.456Z,0.80
2022-09-05T11:40:10.269Z,0.90
2022-09-05T11:40:48.525Z,0.70
2022-09-05T11:41:34.549Z,0.80
2022-09-05T11:42:33.504Z,1.10
2022-09-05T11:43:33.482Z,0.80
2022-09-05T11:44:33.461Z,0.80
2022-09-05T11:45:33.441Z,0.80
2022-09-05T11:46:33.557Z,1.10
2022-09-05T11:47:41.025Z,0.60
2022-09-05T11:48:34.410Z,0.80
2022-09-05T11:49:33.405Z,0.90
2022-09-05T11:50:33.413Z,0.70
2022-09-05T11:51:34.451Z,0.80
2022-09-05T11:52:33.426Z,0.80
2022-09-05T11:53:33.357Z,1.10
2022-09-05T11:54:33.491Z,1.00
2022-09-05T11:55:33.359Z,0.80
2022-09-05T11:56:34.109Z,0.70
2022-09-05T11:57:34.887Z,0.70
2022-09-05T11:58:44.981Z,0.80
2022-09-05T11:59:34.318Z,1.00
2022-09-05T12:00:34.510Z,0.70
2022-09-05T12:01:41.199Z,0.90
2022-09-05T12:02:34.625Z,0.60
2022-09-05T12:03:59.513Z,0.80
2022-09-05T12:04:36.248Z,0.80
2022-09-05T12:05:50.630Z,0.90
2022-09-05T12:06:34.257Z,0.70
2022-09-05T12:07:33.255Z,0.90
2022-09-05T12:08:33.198Z,0.80
2022-09-05T12:09:33.286Z,1.00
2022-09-05T12:10:46.547Z,0.90
2022-09-05T12:11:34.295Z,1.20
2022-09-05T12:12:41.275Z,0.90
2022-09-05T12:13:34.164Z,0.80
2022-09-05T12:14:33.136Z,0.70
2022-09-05T12:15:33.215Z,0.70
2022-09-05T12:16:33.203Z,0.70
2022-09-05T12:17:35.353Z,1.30
2022-09-05T12:18:33.094Z,0.90
2022-09-05T12:19:34.704Z,0.90
2022-09-05T12:20:37.458Z,1.10
2022-09-05T12:21:38.273Z,0.80
2022-09-05T12:22:33.054Z,0.90
2022-09-05T12:24:28.513Z,0.90
2022-09-05T12:24:34.027Z,0.90
2022-09-05T12:27:40.301Z,0.90
2022-09-05T12:27:40.718Z,0.80
2022-09-05T12:27:44.804Z,1.00
2022-09-05T12:29:32.768Z,1.00
2022-09-05T12:29:38.743Z,0.80
2022-09-05T12:30:47.658Z,1.00
2022-09-05T12:34:02.751Z,0.90
2022-09-05T12:34:45.348Z,0.90
2022-09-05T12:36:01.710Z,0.90
2022-09-05T12:36:06.806Z,1.00
2022-09-05T12:36:08.654Z,0.80
2022-09-05T12:40:27.586Z,0.90
2022-09-05T12:40:56.189Z,1.10
2022-09-05T12:40:57.495Z,0.90
2022-09-05T12:40:58.315Z,0.80
2022-09-05T12:41:38.800Z,0.80
2022-09-05T12:42:08.242Z,0.80
2022-09-05T12:42:45.728Z,0.80
2022-09-05T12:44:38.903Z,1.00
2022-09-05T12:44:42.062Z,1.10
2022-09-05T12:45:37.671Z,1.00
2022-09-05T12:46:32.809Z,0.90
2022-09-05T12:47:32.817Z,1.30
2022-09-05T12:48:38.454Z,1.00
2022-09-05T12:49:36.331Z,1.00
2022-09-05T12:50:32.746Z,0.90
2022-09-05T12:51:45.112Z,0.90
2022-09-05T12:52:33.778Z,1.00
2022-09-05T12:53:32.722Z,1.10
2022-09-05T12:54:34.644Z,0.90
2022-09-05T12:55:32.708Z,0.80
2022-09-05T12:59:22.635Z,1.20
2022-09-05T12:59:40.241Z,0.70
2022-09-05T13:03:03.138Z,1.00
2022-09-05T13:03:04.680Z,0.70
2022-09-05T13:03:04.852Z,0.90
2022-09-05T13:03:06.305Z,0.90
2022-09-05T13:03:12.048Z,0.90
2022-09-05T13:03:34.129Z,1.10
2022-09-05T13:04:33.523Z,0.80
2022-09-05T13:05:32.673Z,1.00
2022-09-05T13:06:32.754Z,0.80
2022-09-05T13:07:32.587Z,0.90
2022-09-05T13:08:32.608Z,0.70
2022-09-05T13:12:06.041Z,1.00
2022-09-05T13:14:46.328Z,1.10
2022-09-05T13:14:49.039Z,1.10
2022-09-05T13:14:49.096Z,1.10
2022-09-05T13:14:54.124Z,1.20
2022-09-05T13:15:01.987Z,1.00
2022-09-05T13:15:34.058Z,0.70
2022-09-05T13:16:32.631Z,0.90
2022-09-05T13:17:32.536Z,0.80
2022-09-05T13:18:32.465Z,1.20
2022-09-05T13:19:32.477Z,0.80
2022-09-05T13:20:32.470Z,0.90
2022-09-05T13:21:32.435Z,1.00